Time;durP1;ratioP1;P1;durP2;ratioP2;P2;SDS_P1;SDS_P2;PMS_P1;PMS_P2;Temp;Humidity;BMP_temperature;BMP_pressure;BME280_temperature;BME280_humidity;BME280_pressure;Samples;Min_cycle;Max_cycle;Signal;HPM_P1;HPM_P2
2023/10/22 00:00:15;;;;;;;9.45;3.13;;;;;;;23.36;42.69;94910.78;5102580;28;20206;-65
2023/10/22 00:02:41;;;;;;;9.73;2.45;;;;;;;23.34;43.16;94907.50;5102813;27;20237;-64
2023/10/22 00:05:09;;;;;;;7.68;2.53;;;;;;;23.38;43.39;94895.91;5101732;28;20930;-66
2023/10/22 00:07:36;;;;;;;10.50;2.58;;;;;;;23.32;43.29;94899.84;5105726;28;20217;-65
2023/10/22 00:10:05;;;;;;;12.75;2.90;;;;;;;23.34;43.34;94876.38;5104394;28;20213;-66
2023/10/22 00:12:31;;;;;;;8.40;2.92;;;;;;;23.25;43.26;94877.19;5101953;28;20258;-65
2023/10/22 00:14:58;;;;;;;8.43;2.88;;;;;;;23.26;43.39;94881.44;5103662;28;20231;-65
2023/10/22 00:17:25;;;;;;;7.57;3.15;;;;;;;23.30;42.87;94862.03;5102893;27;20232;-64
2023/10/22 00:19:51;;;;;;;12.32;3.75;;;;;;;23.23;42.85;94882.53;5104074;28;20301;-66
2023/10/22 00:22:18;;;;;;;10.05;2.83;;;;;;;23.37;42.72;94881.31;5103048;28;20690;-66
2023/10/22 00:24:45;;;;;;;4.43;2.83;;;;;;;23.33;42.53;94874.75;5103491;28;20257;-65
2023/10/22 00:27:13;;;;;;;7.13;2.70;;;;;;;23.23;42.65;94884.28;5100802;28;20628;-65
2023/10/22 00:29:39;;;;;;;9.55;2.80;;;;;;;23.30;42.36;94885.38;5102048;28;20331;-64
2023/10/22 00:32:07;;;;;;;12.35;2.88;;;;;;;23.26;42.54;94878.84;5104210;28;20643;-66
2023/10/22 00:34:34;;;;;;;15.70;3.63;;;;;;;23.16;42.62;94885.75;5101842;28;20211;-65
2023/10/22 00:37:00;;;;;;;6.20;2.80;;;;;;;23.28;41.95;94893.28;5101995;28;20209;-63
2023/10/22 00:39:27;;;;;;;13.70;3.42;;;;;;;23.25;41.47;94887.56;5103156;28;20198;-65
2023/10/22 00:41:54;;;;;;;11.90;2.55;;;;;;;23.22;41.55;94883.47;5103616;28;20918;-65
2023/10/22 00:44:22;;;;;;;9.00;2.30;;;;;;;23.28;41.60;94880.31;5096601;28;20665;-64
2023/10/22 00:46:49;;;;;;;8.65;2.90;;;;;;;23.20;41.79;94874.19;5082446;28;20213;-65
2023/10/22 00:49:16;;;;;;;11.80;3.38;;;;;;;23.28;41.70;94892.47;5083451;28;20236;-63
2023/10/22 00:51:43;;;;;;;9.18;2.70;;;;;;;23.14;42.31;94872.94;5082981;28;20201;-63
2023/10/22 00:54:11;;;;;;;4.95;2.53;;;;;;;23.16;42.32;94859.84;5079851;28;20282;-63
2023/10/22 00:56:39;;;;;;;10.02;2.60;;;;;;;23.23;42.09;94864.38;5080388;28;20293;-64
2023/10/22 00:59:06;;;;;;;15.43;2.17;;;;;;;23.27;41.70;94859.72;5081702;28;20217;-64
2023/10/22 01:01:34;;;;;;;8.70;2.50;;;;;;;23.39;41.14;94845.69;5081448;28;20274;-63
2023/10/22 01:04:01;;;;;;;9.63;2.97;;;;;;;23.37;40.80;94855.38;5080675;28;20267;-63
2023/10/22 01:06:28;;;;;;;7.28;2.58;;;;;;;23.41;40.72;94856.75;5078418;28;20775;-64
2023/10/22 01:08:56;;;;;;;7.22;2.83;;;;;;;23.51;40.20;94849.78;5081033;28;20213;-62
2023/10/22 01:11:22;;;;;;;7.68;2.58;;;;;;;23.48;40.59;94863.06;5083125;28;20216;-66
2023/10/22 01:13:49;;;;;;;8.65;2.75;;;;;;;23.46;41.24;94864.13;5083005;28;20629;-65
2023/10/22 01:16:16;;;;;;;8.50;3.47;;;;;;;23.21;41.26;94855.91;5083630;28;20380;-66
2023/10/22 01:18:44;;;;;;;9.52;2.60;;;;;;;23.14;41.39;94859.97;5081681;28;20233;-64
2023/10/22 01:21:11;;;;;;;9.13;2.90;;;;;;;23.26;42.44;94852.91;5083339;28;20262;-68
2023/10/22 01:23:39;;;;;;;11.20;3.67;;;;;;;23.15;42.54;94851.25;5084232;28;20694;-66
2023/10/22 01:26:07;;;;;;;9.20;2.85;;;;;;;23.21;43.40;94866.28;5082612;28;20624;-67
2023/10/22 01:28:34;;;;;;;9.38;2.80;;;;;;;23.25;39.24;94856.47;5082055;28;20320;-68
2023/10/22 01:31:01;;;;;;;8.35;2.90;;;;;;;23.36;39.07;94864.13;5083794;28;20303;-66
2023/10/22 01:33:28;;;;;;;8.02;3.33;;;;;;;23.50;39.36;94843.00;5083120;28;20200;-66
2023/10/22 01:35:54;;;;;;;20.42;2.80;;;;;;;23.49;38.25;94856.91;5081880;28;20247;-66
2023/10/22 01:38:21;;;;;;;6.45;2.78;;;;;;;23.61;37.94;94863.63;5083582;28;20606;-66
2023/10/22 01:40:49;;;;;;;8.63;2.88;;;;;;;23.73;37.44;94848.78;5084170;28;20266;-66
2023/10/22 01:43:16;;;;;;;9.73;2.80;;;;;;;23.74;37.31;94872.00;5083633;28;20206;-66
2023/10/22 01:45:42;;;;;;;8.95;3.88;;;;;;;23.72;37.59;94866.13;5081966;28;20294;-65
2023/10/22 01:48:09;;;;;;;12.90;2.85;;;;;;;23.83;37.49;94865.16;5082057;28;20245;-67
2023/10/22 01:50:36;;;;;;;16.10;2.78;;;;;;;23.81;37.83;94858.44;5083283;28;20237;-66
2023/10/22 01:53:02;;;;;;;9.02;2.45;;;;;;;23.80;40.59;94887.94;5084964;28;20668;-64
2023/10/22 01:55:29;;;;;;;9.07;3.22;;;;;;;23.71;41.00;94861.06;5087588;28;20240;-63
2023/10/22 01:57:58;;;;;;;8.70;3.55;;;;;;;23.48;41.71;94863.06;5085892;28;20248;-64
2023/10/22 02:00:25;;;;;;;7.28;3.20;;;;;;;23.50;42.17;94860.34;5085605;28;20679;-65
2023/10/22 02:02:52;;;;;;;9.20;3.13;;;;;;;23.21;42.82;94855.09;5086334;28;20243;-65
2023/10/22 02:05:19;;;;;;;7.53;3.35;;;;;;;23.24;43.25;94865.19;5084788;28;20266;-62
2023/10/22 02:07:46;;;;;;;16.05;3.95;;;;;;;23.09;43.65;94872.50;5084969;28;20266;-65
2023/10/22 02:10:13;;;;;;;7.75;3.13;;;;;;;23.04;43.73;94861.69;5087183;28;20294;-66
2023/10/22 02:12:39;;;;;;;7.15;3.53;;;;;;;22.94;44.48;94853.09;5083833;28;21265;-66
2023/10/22 02:15:08;;;;;;;10.05;3.42;;;;;;;22.86;44.93;94845.97;5086763;28;20629;-65
2023/10/22 02:17:35;;;;;;;9.18;2.83;;;;;;;22.69;45.08;94851.72;5085300;28;20694;-65
2023/10/22 02:20:02;;;;;;;5.90;2.72;;;;;;;22.68;45.94;94855.28;5084322;28;20682;-65
2023/10/22 02:22:29;;;;;;;8.65;2.45;;;;;;;22.49;46.37;94868.13;5083698;28;20254;-65
2023/10/22 02:24:56;;;;;;;5.30;2.92;;;;;;;22.54;46.91;94863.38;5086366;28;20198;-66
2023/10/22 02:27:23;;;;;;;5.60;2.95;;;;;;;22.42;47.37;94861.81;5086775;28;20639;-65
2023/10/22 02:29:49;;;;;;;6.35;3.58;;;;;;;22.14;47.95;94843.38;5085078;28;20253;-65
2023/10/22 02:32:17;;;;;;;15.55;4.10;;;;;;;22.19;48.61;94840.44;5085410;28;20225;-66
2023/10/22 02:34:44;;;;;;;5.40;3.30;;;;;;;22.25;48.53;94824.41;5082649;28;20625;-65
2023/10/22 02:37:11;;;;;;;16.45;4.13;;;;;;;22.25;48.55;94820.03;5084231;28;20224;-63
2023/10/22 02:39:37;;;;;;;9.60;3.67;;;;;;;21.99;47.86;94852.38;5087189;28;21516;-64
2023/10/22 02:42:05;;;;;;;11.73;3.50;;;;;;;22.06;46.81;94840.59;5085162;28;20267;-64
2023/10/22 02:44:31;;;;;;;12.35;3.72;;;;;;;22.15;48.11;94857.97;5085266;28;20254;-65
2023/10/22 02:46:59;;;;;;;7.22;3.92;;;;;;;22.10;48.72;94826.47;5083625;28;20198;-64
2023/10/22 02:49:27;;;;;;;8.70;3.70;;;;;;;22.04;49.40;94868.38;5083322;28;20217;-65
2023/10/22 02:51:54;;;;;;;9.65;3.22;;;;;;;21.93;48.93;94858.06;5082563;28;20736;-64
2023/10/22 02:54:21;;;;;;;9.90;4.10;;;;;;;22.04;49.16;94847.66;5083318;28;20258;-65
2023/10/22 02:56:48;;;;;;;9.73;3.58;;;;;;;22.18;48.71;94852.53;5082243;28;20297;-64
2023/10/22 02:59:15;;;;;;;12.30;3.33;;;;;;;22.12;48.07;94850.47;5083951;28;20236;-65
2023/10/22 03:01:42;;;;;;;10.73;3.20;;;;;;;22.13;44.65;94846.91;5083601;28;20206;-65
2023/10/22 03:04:08;;;;;;;14.55;3.38;;;;;;;22.24;46.03;94857.22;5084832;28;20232;-65
2023/10/22 03:06:36;;;;;;;11.18;4.60;;;;;;;22.36;46.80;94858.78;5079671;28;20671;-64
2023/10/22 03:09:04;;;;;;;6.90;3.10;;;;;;;22.27;47.96;94856.16;5081598;28;20206;-64
2023/10/22 03:11:31;;;;;;;11.93;2.95;;;;;;;22.26;47.90;94865.69;5085939;28;20205;-64
2023/10/22 03:14:20;;;;;;;8.63;3.17;;;;;;;22.24;47.84;94848.63;5085985;28;20216;-67
2023/10/22 03:16:47;;;;;;;4.88;3.05;;;;;;;22.13;48.68;94836.56;5085120;28;20206;-66
2023/10/22 03:19:13;;;;;;;9.35;4.25;;;;;;;22.05;49.03;94833.78;5086529;28;20206;-66
2023/10/22 03:21:41;;;;;;;11.50;3.67;;;;;;;21.97;49.13;94841.34;5083525;28;20233;-66
2023/10/22 03:24:11;;;;;;;6.88;3.38;;;;;;;21.75;49.72;94842.28;5085986;28;20328;-65
2023/10/22 03:26:38;;;;;;;8.18;2.88;;;;;;;21.53;49.99;94819.09;5085489;28;20228;-65
2023/10/22 03:29:05;;;;;;;7.35;2.95;;;;;;;21.69;50.20;94833.25;5085538;28;20249;-65
2023/10/22 03:31:32;;;;;;;9.65;3.50;;;;;;;21.66;50.81;94833.47;5084966;28;20257;-65
2023/10/22 03:33:58;;;;;;;9.60;3.47;;;;;;;21.52;50.62;94835.53;5084350;28;20198;-65
2023/10/22 03:36:25;;;;;;;8.40;3.40;;;;;;;21.62;50.74;94813.97;5083978;28;20682;-65
2023/10/22 03:38:53;;;;;;;13.35;3.28;;;;;;;21.69;50.44;94811.72;5083564;28;20687;-65
2023/10/22 03:41:20;;;;;;;11.38;3.97;;;;;;;21.69;51.35;94851.34;5085621;28;20225;-65
2023/10/22 03:43:47;;;;;;;11.68;4.88;;;;;;;21.73;51.19;94802.78;5084087;28;20375;-66
2023/10/22 03:46:13;;;;;;;10.52;3.22;;;;;;;21.61;51.70;94843.38;5085392;28;20642;-65
2023/10/22 03:48:40;;;;;;;15.98;3.47;;;;;;;21.68;52.05;94834.19;5082844;28;20218;-66
2023/10/22 03:51:06;;;;;;;7.47;3.03;;;;;;;21.71;51.67;94826.19;5084291;28;20225;-66
2023/10/22 03:53:33;;;;;;;9.10;3.88;;;;;;;21.53;51.80;94844.94;5085424;28;20225;-65
2023/10/22 03:56:01;;;;;;;8.60;4.35;;;;;;;21.49;52.36;94834.03;5084314;28;20282;-66
2023/10/22 03:58:28;;;;;;;8.98;4.10;;;;;;;21.38;52.66;94845.22;5083333;28;20294;-64
2023/10/22 04:00:55;;;;;;;16.33;3.53;;;;;;;21.39;52.69;94844.25;5084235;28;20740;-66
2023/10/22 04:03:22;;;;;;;11.43;4.18;;;;;;;21.19;53.09;94836.41;5084005;28;20202;-65
2023/10/22 04:05:55;;;;;;;14.77;3.72;;;;;;;21.24;53.32;94845.50;5083411;28;20675;-65
2023/10/22 04:08:22;;;;;;;5.32;3.45;;;;;;;21.15;53.49;94847.94;5083622;28;20248;-67
2023/10/22 04:10:49;;;;;;;13.35;3.78;;;;;;;21.03;53.68;94845.34;5084287;28;20245;-66
2023/10/22 04:13:17;;;;;;;8.00;3.40;;;;;;;21.19;53.35;94834.66;5082173;28;20236;-64
2023/10/22 04:15:45;;;;;;;10.63;4.40;;;;;;;21.15;52.49;94845.34;5082616;28;20649;-67
2023/10/22 04:18:11;;;;;;;14.73;3.50;;;;;;;20.95;52.57;94860.66;5082757;28;20197;-64
2023/10/22 04:20:38;;;;;;;13.05;4.50;;;;;;;20.88;53.05;94877.56;5081022;28;20193;-65
2023/10/22 04:23:05;;;;;;;8.63;3.42;;;;;;;21.04;52.77;94820.34;5083234;28;20267;-67
2023/10/22 04:25:36;;;;;;;11.10;3.10;;;;;;;20.79;53.26;94842.09;5084072;28;20211;-66
2023/10/22 04:28:04;;;;;;;10.02;3.20;;;;;;;20.75;53.24;94874.28;5082098;28;20201;-66
2023/10/22 04:30:33;;;;;;;12.07;3.42;;;;;;;20.63;53.47;94877.78;5082713;28;20258;-66
2023/10/22 04:32:59;;;;;;;7.93;3.20;;;;;;;20.63;53.82;94883.78;5083421;28;20680;-65
2023/10/22 04:35:26;;;;;;;10.43;4.13;;;;;;;20.47;54.68;94908.28;5080783;28;20193;-66
2023/10/22 04:37:54;;;;;;;11.52;3.88;;;;;;;20.64;54.60;94880.25;5084959;28;20282;-66
2023/10/22 04:40:21;;;;;;;9.88;3.67;;;;;;;20.36;55.68;94891.78;5084475;28;20583;-65
2023/10/22 04:42:50;;;;;;;8.73;3.63;;;;;;;20.30;56.30;94891.41;5083712;28;20202;-66
2023/10/22 04:45:17;;;;;;;13.98;4.32;;;;;;;20.21;56.86;94885.22;5099138;28;20423;-65
2023/10/22 04:47:45;;;;;;;11.23;3.42;;;;;;;20.09;57.35;94893.84;5102270;28;20295;-64
2023/10/22 04:50:11;;;;;;;15.35;4.28;;;;;;;20.15;57.42;94913.22;5101922;28;20312;-65
2023/10/22 04:52:38;;;;;;;9.77;3.67;;;;;;;20.12;57.69;94888.47;5103673;28;20232;-65
2023/10/22 04:55:05;;;;;;;12.48;3.92;;;;;;;20.01;58.29;94917.63;5102546;28;20232;-65
2023/10/22 04:57:32;;;;;;;7.40;3.92;;;;;;;19.93;58.56;94937.16;5102247;28;20232;-65
2023/10/22 04:59:59;;;;;;;8.73;3.85;;;;;;;20.03;58.84;94899.47;5100523;28;20274;-64
2023/10/22 05:02:25;;;;;;;9.05;3.97;;;;;;;19.98;58.95;94930.75;5102396;28;20197;-64
2023/10/22 05:04:54;;;;;;;14.23;4.00;;;;;;;20.17;58.75;94914.75;5100376;28;20211;-64
2023/10/22 05:07:20;;;;;;;5.50;4.05;;;;;;;20.21;58.36;94910.19;5103054;28;20209;-65
2023/10/22 05:09:47;;;;;;;6.20;3.85;;;;;;;20.05;58.99;94926.78;5101582;28;20370;-65
2023/10/22 05:12:14;;;;;;;12.32;4.40;;;;;;;20.27;58.53;94902.00;5104571;28;20301;-64
2023/10/22 05:14:40;;;;;;;9.02;4.35;;;;;;;20.09;59.01;94929.94;5102295;28;20258;-65
2023/10/22 05:17:07;;;;;;;15.13;3.90;;;;;;;20.23;58.75;94893.66;5102921;28;20204;-65
2023/10/22 05:19:34;;;;;;;23.20;4.13;;;;;;;19.99;59.17;94903.19;5103793;28;20212;-65
2023/10/22 05:22:04;;;;;;;6.40;4.15;;;;;;;19.91;60.25;94926.97;5104514;28;20197;-63
2023/10/22 05:24:31;;;;;;;8.88;3.65;;;;;;;19.93;60.25;94921.69;5101880;28;20675;-65
2023/10/22 05:26:58;;;;;;;9.30;4.30;;;;;;;19.94;60.28;94902.72;5105967;28;20232;-67
2023/10/22 05:29:25;;;;;;;11.05;4.78;;;;;;;19.73;60.79;94917.16;5107757;28;20225;-65
2023/10/22 05:31:52;;;;;;;7.82;4.10;;;;;;;19.60;61.72;94922.34;5107895;28;20217;-66
2023/10/22 05:34:18;;;;;;;9.93;4.45;;;;;;;19.54;61.93;94926.22;5106362;28;20277;-65
2023/10/22 05:36:45;;;;;;;8.82;4.50;;;;;;;19.72;61.74;94936.13;5106841;28;20232;-66
2023/10/22 05:39:13;;;;;;;9.88;3.53;;;;;;;20.05;60.93;94926.78;5106580;28;20679;-67
2023/10/22 05:41:40;;;;;;;6.82;3.38;;;;;;;20.01;60.81;94916.81;5107574;28;20220;-66
2023/10/22 05:44:08;;;;;;;22.02;4.97;;;;;;;19.90;61.16;94925.31;5106004;28;20232;-65
2023/10/22 05:46:35;;;;;;;5.00;3.40;;;;;;;19.83;61.70;94925.84;5105915;28;20225;-66
2023/10/22 05:49:03;;;;;;;13.93;4.28;;;;;;;19.83;62.00;94938.75;5107506;28;20225;-67
2023/10/22 05:51:30;;;;;;;7.07;4.47;;;;;;;19.85;61.85;94934.31;5107574;28;20280;-65
2023/10/22 05:53:57;;;;;;;8.10;3.75;;;;;;;19.83;62.00;94951.66;5105286;28;20629;-66
2023/10/22 05:56:26;;;;;;;12.65;3.95;;;;;;;19.97;61.71;94946.34;5107046;28;20201;-65
2023/10/22 05:58:52;;;;;;;7.80;4.65;;;;;;;19.86;61.92;94957.41;5106313;28;20201;-66
2023/10/22 06:01:19;;;;;;;7.95;3.85;;;;;;;19.94;61.39;94964.59;5106477;28;20197;-66
2023/10/22 06:03:46;;;;;;;9.57;4.85;;;;;;;20.08;61.32;94961.84;5106511;28;20640;-65
2023/10/22 06:06:12;;;;;;;15.25;4.13;;;;;;;20.07;61.26;94969.69;5104490;28;20236;-64
2023/10/22 06:08:39;;;;;;;6.47;3.42;;;;;;;20.01;61.53;94965.81;5106058;28;20197;-63
2023/10/22 06:11:06;;;;;;;10.18;4.60;;;;;;;20.11;61.28;94984.03;5105006;28;20228;-65
2023/10/22 06:13:34;;;;;;;8.40;4.55;;;;;;;20.08;61.58;94984.25;5107191;28;20205;-66
2023/10/22 06:16:00;;;;;;;32.95;5.85;;;;;;;20.05;61.39;95001.59;5106494;28;20225;-64
2023/10/22 06:18:27;;;;;;;12.63;5.97;;;;;;;20.18;61.31;94987.81;5105186;28;20197;-65
2023/10/22 06:20:54;;;;;;;10.27;4.63;;;;;;;20.18;61.66;94991.22;5107320;28;20197;-65
2023/10/22 06:23:22;;;;;;;9.75;5.40;;;;;;;20.25;61.48;94989.03;5103874;28;20703;-64
2023/10/22 06:25:48;;;;;;;14.43;4.70;;;;;;;19.92;62.31;94995.66;5104358;28;20202;-66
2023/10/22 06:28:15;;;;;;;12.95;6.05;;;;;;;20.04;62.24;95004.31;5106020;28;20237;-66
2023/10/22 06:30:43;;;;;;;10.15;5.80;;;;;;;20.18;61.92;95008.47;5106478;28;20662;-66
2023/10/22 06:33:10;;;;;;;13.25;6.43;;;;;;;20.24;61.59;95014.00;5103848;28;20237;-66
2023/10/22 06:35:37;;;;;;;10.15;6.43;;;;;;;20.20;61.69;95012.56;5105033;28;20197;-67
2023/10/22 06:38:03;;;;;;;13.20;7.18;;;;;;;20.27;61.27;95010.38;5105718;28;20228;-66
2023/10/22 06:40:30;;;;;;;14.70;6.78;;;;;;;20.34;61.14;95012.38;5107213;28;20244;-66
2023/10/22 06:42:57;;;;;;;11.75;5.93;;;;;;;20.52;60.74;95019.78;5106674;28;20619;-65
2023/10/22 06:45:24;;;;;;;9.88;6.03;;;;;;;20.69;60.07;95009.84;5105556;28;20320;-65
2023/10/22 06:47:52;;;;;;;20.98;6.80;;;;;;;20.83;59.49;95024.31;5103186;28;20210;-65
2023/10/22 06:50:19;;;;;;;18.98;5.78;;;;;;;21.02;59.08;95021.19;5104059;28;20229;-65
2023/10/22 06:52:45;;;;;;;15.30;5.88;;;;;;;21.21;58.25;95015.47;5104428;28;20225;-68
2023/10/22 06:55:12;;;;;;;11.98;5.63;;;;;;;21.38;57.53;95009.84;5103356;28;20696;-66
2023/10/22 06:57:39;;;;;;;16.90;5.70;;;;;;;21.68;56.90;95011.81;5104889;28;20224;-68
2023/10/22 07:00:09;;;;;;;17.38;5.47;;;;;;;21.82;56.40;95015.91;5102586;28;20203;-67
2023/10/22 07:02:36;;;;;;;8.70;4.95;;;;;;;22.05;55.89;95014.94;5101582;28;20690;-69
2023/10/22 07:05:10;;;;;;;10.55;5.10;;;;;;;22.56;54.07;95015.09;5103150;28;20308;-66
2023/10/22 07:07:41;;;;;;;10.90;4.85;;;;;;;22.91;53.21;95014.84;5102726;28;20206;-68
2023/10/22 07:10:09;;;;;;;9.38;4.32;;;;;;;23.35;52.20;95013.69;5106660;28;20230;-68
2023/10/22 07:12:35;;;;;;;13.90;5.20;;;;;;;23.56;51.15;95025.81;5105218;28;20193;-68
2023/10/22 07:15:02;;;;;;;11.35;4.15;;;;;;;23.72;50.57;95023.56;5106261;28;20205;-68
2023/10/22 07:17:29;;;;;;;17.30;4.65;;;;;;;23.99;50.01;95025.56;5103741;28;20208;-67
2023/10/22 07:19:55;;;;;;;14.20;4.25;;;;;;;24.47;48.85;95012.66;5106524;28;20208;-67
2023/10/22 07:22:23;;;;;;;17.23;5.22;;;;;;;24.86;48.00;95008.22;5105157;28;20250;-68
2023/10/22 07:24:50;;;;;;;11.32;5.53;;;;;;;24.95;47.56;95004.84;5105681;28;20242;-63
2023/10/22 07:27:17;;;;;;;16.15;5.22;;;;;;;25.05;47.19;94995.22;5104965;28;20236;-65
2023/10/22 07:29:44;;;;;;;10.95;4.68;;;;;;;25.14;47.09;95010.94;5104499;28;20216;-66
2023/10/22 07:32:11;;;;;;;19.15;5.45;;;;;;;25.13;47.05;95009.31;5104455;28;20715;-66
2023/10/22 07:34:38;;;;;;;9.20;4.63;;;;;;;25.16;46.42;95006.44;5099308;28;20732;-66
2023/10/22 07:37:05;;;;;;;14.05;8.25;;;;;;;25.09;46.53;94999.19;5104310;28;20233;-65
2023/10/22 07:39:33;;;;;;;30.80;20.90;;;;;;;24.97;46.71;94999.50;5105098;28;20192;-63
2023/10/22 07:42:00;;;;;;;26.80;15.05;;;;;;;24.92;46.61;94994.69;5103564;28;20735;-65
2023/10/22 07:44:27;;;;;;;23.15;13.70;;;;;;;24.73;46.54;94987.75;5104877;28;20237;-65
2023/10/22 07:46:54;;;;;;;16.05;8.65;;;;;;;24.62;46.92;94985.28;5103189;28;20198;-63
2023/10/22 07:49:21;;;;;;;9.15;6.40;;;;;;;24.72;46.78;94985.28;5102750;28;20224;-63
2023/10/22 07:51:47;;;;;;;12.18;4.55;;;;;;;24.71;47.50;94984.47;5103924;28;20239;-63
2023/10/22 07:54:14;;;;;;;14.02;5.07;;;;;;;24.90;46.68;94983.59;5104764;28;20642;-64
2023/10/22 07:56:42;;;;;;;7.25;4.18;;;;;;;25.05;46.20;94982.22;5105239;28;20682;-64
2023/10/22 07:59:09;;;;;;;10.50;3.90;;;;;;;25.15;46.25;94981.38;5104373;28;20197;-63
2023/10/22 08:01:36;;;;;;;10.00;4.43;;;;;;;25.08;45.95;94981.13;5104420;28;20613;-63
2023/10/22 08:04:02;;;;;;;14.57;4.50;;;;;;;25.28;45.76;94980.09;5105478;28;20228;-65
2023/10/22 08:06:29;;;;;;;14.38;4.95;;;;;;;25.40;45.65;94991.97;5103966;28;20224;-64
2023/10/22 08:08:57;;;;;;;23.50;10.35;;;;;;;25.80;44.54;94971.78;5105319;28;20204;-64
2023/10/22 08:11:23;;;;;;;16.35;5.60;;;;;;;26.53;43.13;94975.13;5103965;28;20221;-63
2023/10/22 08:13:51;;;;;;;17.75;5.75;;;;;;;27.40;41.26;94962.03;5102091;28;20270;-65
2023/10/22 08:16:18;;;;;;;10.73;4.90;;;;;;;28.80;38.38;94955.16;5103325;28;21677;-64
2023/10/22 08:18:45;;;;;;;8.82;4.13;;;;;;;30.39;35.45;94951.50;5102748;28;20197;-64
2023/10/22 08:21:11;;;;;;;17.25;5.68;;;;;;;30.97;33.52;94952.66;5104942;28;20200;-65
2023/10/22 08:23:39;;;;;;;7.88;4.70;;;;;;;30.56;34.01;94954.81;5104209;28;20273;-64
2023/10/22 08:26:05;;;;;;;12.73;5.22;;;;;;;29.74;35.29;94947.41;5104806;28;20296;-64
2023/10/22 08:28:32;;;;;;;11.80;4.40;;;;;;;29.09;36.73;94955.47;5103821;28;20244;-65
2023/10/22 08:31:00;;;;;;;12.23;4.32;;;;;;;28.50;38.00;94942.75;5102711;28;20249;-65
2023/10/22 08:33:27;;;;;;;10.10;4.32;;;;;;;28.26;38.38;94939.16;5103491;28;20211;-65
2023/10/22 08:35:54;;;;;;;21.55;5.30;;;;;;;28.13;38.70;94941.41;5103077;28;20197;-65
2023/10/22 08:38:20;;;;;;;10.90;5.50;;;;;;;28.01;39.10;94942.69;5103510;28;20642;-64
2023/10/22 08:40:51;;;;;;;14.60;4.50;;;;;;;28.27;38.31;94943.41;5101887;28;20416;-67
2023/10/22 08:43:19;;;;;;;8.35;4.25;;;;;;;28.63;37.71;94930.84;5102128;28;20784;-67
2023/10/22 08:45:48;;;;;;;11.00;4.45;;;;;;;29.05;36.87;94932.44;5079963;28;20253;-67
2023/10/22 08:48:17;;;;;;;10.30;3.90;;;;;;;29.58;36.12;94930.97;5080206;28;20277;-66
2023/10/22 08:50:46;;;;;;;11.13;3.78;;;;;;;29.74;35.92;94925.66;5079601;28;20287;-64
2023/10/22 08:53:15;;;;;;;6.47;4.50;;;;;;;29.33;35.79;94935.47;5080355;28;20197;-65
2023/10/22 08:55:45;;;;;;;14.05;4.70;;;;;;;29.20;36.92;94929.94;5082128;28;20263;-66
2023/10/22 08:58:14;;;;;;;10.70;5.22;;;;;;;29.32;36.61;94929.41;5080928;28;20201;-66
2023/10/22 09:00:45;;;;;;;19.85;11.43;;;;;;;29.10;36.96;94917.88;5081471;28;20233;-64
2023/10/22 09:03:12;;;;;;;20.48;4.15;;;;;;;28.73;36.52;94933.25;5084666;28;20212;-64
2023/10/22 09:05:41;;;;;;;11.20;5.40;;;;;;;28.55;37.31;94915.13;5084611;28;20297;-64
2023/10/22 09:08:08;;;;;;;12.05;6.88;;;;;;;28.47;36.86;94928.22;5086349;28;20276;-63
2023/10/22 09:10:37;;;;;;;10.10;4.53;;;;;;;28.69;35.99;94916.28;5086005;28;20471;-63
2023/10/22 09:13:11;;;;;;;14.93;6.20;;;;;;;28.76;35.51;94932.94;5085591;28;20197;-63
2023/10/22 09:15:39;;;;;;;17.77;7.10;;;;;;;28.78;36.46;94915.28;5086075;28;20589;-63
2023/10/22 09:18:06;;;;;;;9.02;5.45;;;;;;;28.89;36.06;94932.47;5085508;28;20213;-63
2023/10/22 09:20:34;;;;;;;13.90;4.40;;;;;;;28.84;34.54;94917.25;5086514;28;20563;-63
2023/10/22 09:23:16;;;;;;;14.38;8.27;;;;;;;29.20;34.96;94928.13;5084651;28;20208;-65
2023/10/22 09:25:44;;;;;;;12.43;7.70;;;;;;;29.28;34.64;94927.28;5083588;28;20197;-64
2023/10/22 09:28:20;;;;;;;16.00;4.05;;;;;;;29.47;34.21;94923.47;5085785;28;20263;-63
2023/10/22 09:30:47;;;;;;;12.70;3.05;;;;;;;29.59;33.77;94925.56;5086588;28;20308;-63
2023/10/22 09:33:17;;;;;;;13.15;5.35;;;;;;;29.00;34.42;94919.84;5087015;28;20204;-65
2023/10/22 09:35:59;;;;;;;12.45;4.30;;;;;;;28.85;33.64;94925.94;5084501;28;20608;-64
2023/10/22 09:38:42;;;;;;;8.93;4.40;;;;;;;28.88;33.99;94915.13;5086396;28;20210;-64
2023/10/22 09:41:11;;;;;;;15.13;5.03;;;;;;;28.77;34.44;94905.78;5084994;28;20190;-64
2023/10/22 09:43:37;;;;;;;12.32;6.28;;;;;;;28.93;33.80;94894.53;5085439;28;20202;-63
2023/10/22 09:46:06;;;;;;;19.00;3.90;;;;;;;29.01;33.86;94902.34;5105033;28;20233;-64
2023/10/22 09:48:35;;;;;;;11.38;3.75;;;;;;;29.01;33.49;94887.47;5102670;28;20200;-64
2023/10/22 09:51:06;;;;;;;13.85;3.78;;;;;;;29.23;33.21;94879.84;5105252;28;20559;-64
2023/10/22 09:53:39;;;;;;;15.57;4.30;;;;;;;29.15;33.25;94877.28;5104686;28;20197;-64
2023/10/22 09:56:11;;;;;;;15.75;4.70;;;;;;;29.10;33.08;94873.38;5105553;27;20211;-64
2023/10/22 09:58:44;;;;;;;14.10;4.50;;;;;;;28.89;33.34;94859.22;5103397;28;20725;-64
2023/10/22 10:01:11;;;;;;;11.48;4.25;;;;;;;28.82;34.53;94880.00;5105395;28;20209;-63
2023/10/22 10:03:38;;;;;;;19.48;5.10;;;;;;;28.82;33.39;94866.91;5105020;28;20224;-66
2023/10/22 10:06:07;;;;;;;20.40;4.88;;;;;;;28.66;34.17;94874.78;5103456;28;21026;-64
2023/10/22 10:08:37;;;;;;;15.98;4.55;;;;;;;28.76;34.17;94860.53;5104899;28;20626;-65
2023/10/22 10:11:05;;;;;;;14.40;4.45;;;;;;;28.40;34.49;94870.56;5105296;28;20225;-63
2023/10/22 10:13:35;;;;;;;17.02;5.38;;;;;;;28.55;34.01;94882.94;5103982;28;20205;-64
2023/10/22 10:16:03;;;;;;;13.65;4.68;;;;;;;28.51;34.83;94868.56;5104006;28;20201;-64
2023/10/22 10:19:03;;;;;;;15.23;4.43;;;;;;;28.36;34.90;94879.72;5105027;28;20220;-64
2023/10/22 10:21:48;;;;;;;20.98;4.65;;;;;;;28.44;34.50;94865.81;5022791;28;20657;-63
2023/10/22 10:24:23;;;;;;;24.10;5.25;;;;;;;28.60;34.38;94857.13;5096476;28;20203;-64
2023/10/22 10:26:51;;;;;;;14.13;4.28;;;;;;;28.72;32.99;94853.16;5105372;28;20216;-66
2023/10/22 10:29:21;;;;;;;17.98;4.80;;;;;;;28.69;33.29;94859.56;5104339;28;20208;-65
2023/10/22 10:31:50;;;;;;;21.50;5.22;;;;;;;28.57;33.13;94865.31;5104660;28;20269;-64
2023/10/22 10:34:27;;;;;;;18.45;4.95;;;;;;;28.38;33.21;94840.34;5103964;28;20730;-64
2023/10/22 10:36:54;;;;;;;20.95;5.43;;;;;;;27.91;34.90;94819.25;5103661;28;20200;-65
2023/10/22 10:39:38;;;;;;;18.52;5.72;;;;;;;27.96;34.75;94837.88;5104748;28;20229;-64
2023/10/22 10:42:05;;;;;;;14.13;5.30;;;;;;;28.15;34.11;94844.56;5104657;28;21988;-64
2023/10/22 10:44:33;;;;;;;26.10;6.97;;;;;;;28.17;34.48;94838.19;5103574;28;20236;-64
2023/10/22 10:47:33;;;;;;;20.70;5.70;;;;;;;28.38;33.76;94840.34;5103744;28;20200;-63
2023/10/22 10:50:03;;;;;;;32.58;10.25;;;;;;;28.35;33.85;94831.03;5086805;28;20197;-65
2023/10/22 10:52:31;;;;;;;31.65;8.63;;;;;;;28.44;33.87;94840.50;5102562;28;20621;-65
2023/10/22 10:55:02;;;;;;;24.52;9.02;;;;;;;28.35;34.64;94836.25;5101998;28;20276;-64
2023/10/22 10:57:36;;;;;;;25.70;5.47;;;;;;;28.51;34.30;94840.63;5103958;28;20330;-64
2023/10/22 11:00:05;;;;;;;24.05;6.25;;;;;;;28.75;33.89;94834.53;5100814;28;20200;-65
2023/10/22 11:02:41;;;;;;;34.08;5.63;;;;;;;28.72;33.32;94847.94;5102162;28;20208;-63
2023/10/22 11:05:08;;;;;;;24.08;6.35;;;;;;;28.56;34.31;94842.75;5102946;28;20200;-63
2023/10/22 11:07:35;;;;;;;21.52;6.22;;;;;;;28.38;34.76;94841.16;5103363;28;20208;-64
2023/10/22 11:10:08;;;;;;;20.65;7.03;;;;;;;28.35;35.12;94835.44;5101794;28;20672;-63
2023/10/22 11:12:35;;;;;;;22.45;7.07;;;;;;;28.30;34.91;94838.53;5103992;28;20634;-65
2023/10/22 11:15:01;;;;;;;52.58;8.25;;;;;;;28.34;34.79;94839.84;5105064;28;20225;-65
2023/10/22 11:17:29;;;;;;;18.75;5.07;;;;;;;28.42;34.99;94833.81;5105099;28;20205;-65
2023/10/22 11:19:57;;;;;;;37.72;5.78;;;;;;;28.42;34.75;94837.22;5103795;28;20232;-65
2023/10/22 11:22:24;;;;;;;21.23;5.85;;;;;;;28.64;34.37;94837.53;5104000;28;20219;-65
2023/10/22 11:24:51;;;;;;;22.73;4.55;;;;;;;28.71;34.21;94826.19;5103298;28;20550;-65
2023/10/22 11:27:19;;;;;;;25.08;4.45;;;;;;;28.82;34.02;94832.09;5104283;28;20560;-66
2023/10/22 11:29:47;;;;;;;30.40;6.60;;;;;;;28.84;34.57;94833.56;5104822;28;20300;-65
2023/10/22 11:32:15;;;;;;;18.40;4.88;;;;;;;28.81;34.50;94814.78;5102869;28;20220;-64